Artas, South Dakota
Current Conditions -  °F | °C
As of 4:52 PM on Monday 24 Nov 2014 (Local Time) from KMBG Reporting Station
Clear Clear  
Wind Chill: -10°   Ceiling: Unl
Heat Index: -4°   Visibility: 10mi
Dew Point: -13°   Wind: 12mph
Humidity: 51%   Direction: 320°NW
Pressure: 29.98"   Gusts: NA
Location:  45.7737°N, 99.5895°W
Report Text: KMBG 242252Z AUTO 32010KT 10SM CLR M04/M13 A2998 RMK AO2 SLP178 T10391128
Loading
Personal Weather Stations






























Interactive Weather Map New forecast layout! Learn more

10-Day Weather Forecast

Advertisements
Track Severe Weather on mobile